GLO1436 SBPV-SBRB
Flight info
| Callsign | GLO1436 |
|---|---|
| Flight time | 0h 41m |
| Altitude | FL310 |
| Route | OSATU UZ74 BIGOD |
| Aircraft | B738/M-S/N |
Departure
| Time | 2026-04-26 18:27 |
|---|---|
| Airport | Governador Jorge Teixeira de Oliveira International Airport (SBPV) |
Arrival
| Time | 2026-04-26 19:09 |
|---|---|
| Airport | Rio Branco-Plácido de Castro International Airport (SBRB) |
| Time | Latitude | Longitude | Altitude | Speed | Heading |
|---|---|---|---|---|---|
| 2026-04-26 18:16 | -8.71354 | -63.89994 | 298 ft | 0 kts | 85° |
| 2026-04-26 18:20 | -8.71354 | -63.90000 | 298 ft | 2 kts | 85° |
| 2026-04-26 18:21 | -8.71355 | -63.90016 | 298 ft | 3 kts | 85° |
| 2026-04-26 18:21 | -8.71357 | -63.90035 | 298 ft | 3 kts | 85° |
| 2026-04-26 18:21 | -8.71359 | -63.90054 | 298 ft | 3 kts | 85° |
| 2026-04-26 18:21 | -8.71360 | -63.90066 | 298 ft | 0 kts | 85° |
| 2026-04-26 18:22 | -8.71366 | -63.90053 | 298 ft | 4 kts | 132° |
| 2026-04-26 18:22 | -8.71381 | -63.90048 | 298 ft | 6 kts | 170° |
| 2026-04-26 18:22 | -8.71459 | -63.90041 | 298 ft | 6 kts | 175° |
| 2026-04-26 18:22 | -8.71493 | -63.90039 | 298 ft | 4 kts | 179° |
| 2026-04-26 18:23 | -8.71510 | -63.90040 | 298 ft | 1 kts | 190° |
| 2026-04-26 18:23 | -8.71520 | -63.90043 | 298 ft | 2 kts | 193° |
| 2026-04-26 18:23 | -8.71549 | -63.90050 | 298 ft | 6 kts | 193° |
| 2026-04-26 18:23 | -8.71595 | -63.90047 | 298 ft | 5 kts | 163° |
| 2026-04-26 18:24 | -8.71633 | -63.90037 | 298 ft | 6 kts | 166° |
| 2026-04-26 18:24 | -8.71675 | -63.90027 | 298 ft | 7 kts | 166° |
| 2026-04-26 18:24 | -8.71725 | -63.90016 | 298 ft | 7 kts | 173° |
| 2026-04-26 18:24 | -8.71776 | -63.90013 | 298 ft | 8 kts | 181° |
| 2026-04-26 18:25 | -8.71830 | -63.90018 | 298 ft | 8 kts | 185° |
| 2026-04-26 18:25 | -8.71880 | -63.90041 | 298 ft | 8 kts | 213° |
| 2026-04-26 18:25 | -8.71925 | -63.90077 | 298 ft | 9 kts | 220° |
| 2026-04-26 18:25 | -8.71970 | -63.90116 | 298 ft | 8 kts | 226° |
| 2026-04-26 18:26 | -8.71977 | -63.90169 | 298 ft | 7 kts | 324° |
| 2026-04-26 18:26 | -8.71843 | -63.90176 | 298 ft | 50 kts | 358° |
| 2026-04-26 18:26 | -8.71201 | -63.90215 | 298 ft | 133 kts | 356° |
| 2026-04-26 18:26 | -8.70074 | -63.90313 | 493 ft | 183 kts | 355° |
| 2026-04-26 18:27 | -8.68660 | -63.90451 | 715 ft | 230 kts | 355° |
| 2026-04-26 18:27 | -8.66917 | -63.90567 | 536 ft | 257 kts | 357° |
| 2026-04-26 18:27 | -8.65264 | -63.90638 | 1479 ft | 234 kts | 359° |
| 2026-04-26 18:27 | -8.63595 | -63.90708 | 2572 ft | 254 kts | 355° |
| 2026-04-26 18:28 | -8.61887 | -63.91433 | 3718 ft | 261 kts | 322° |
| 2026-04-26 18:28 | -8.60889 | -63.92910 | 5027 ft | 269 kts | 294° |
| 2026-04-26 18:28 | -8.60721 | -63.94854 | 6060 ft | 283 kts | 262° |
| 2026-04-26 18:28 | -8.61393 | -63.96750 | 7199 ft | 290 kts | 246° |
| 2026-04-26 18:29 | -8.62215 | -63.98436 | 8207 ft | 295 kts | 244° |
| 2026-04-26 18:29 | -8.62911 | -63.99822 | 8998 ft | 300 kts | 244° |
| 2026-04-26 18:29 | -8.63847 | -64.01685 | 10056 ft | 304 kts | 243° |
| 2026-04-26 18:29 | -8.64827 | -64.03636 | 10807 ft | 322 kts | 243° |
| 2026-04-26 18:30 | -8.65893 | -64.05760 | 11249 ft | 346 kts | 243° |
| 2026-04-26 18:30 | -8.66982 | -64.07933 | 12168 ft | 349 kts | 243° |
| 2026-04-26 18:30 | -8.68098 | -64.10161 | 13047 ft | 357 kts | 243° |
| 2026-04-26 18:30 | -8.69225 | -64.12413 | 14021 ft | 367 kts | 243° |
| 2026-04-26 18:31 | -8.70379 | -64.14721 | 15712 ft | 365 kts | 243° |
| 2026-04-26 18:31 | -8.71531 | -64.17029 | 17203 ft | 371 kts | 243° |
| 2026-04-26 18:31 | -8.72696 | -64.19362 | 18515 ft | 376 kts | 243° |
| 2026-04-26 18:31 | -8.73875 | -64.21726 | 19765 ft | 381 kts | 243° |
| 2026-04-26 18:32 | -8.75074 | -64.24138 | 20925 ft | 385 kts | 243° |
| 2026-04-26 18:32 | -8.76277 | -64.26555 | 21920 ft | 394 kts | 243° |
| 2026-04-26 18:32 | -8.77409 | -64.28831 | 22803 ft | 399 kts | 243° |
| 2026-04-26 18:32 | -8.78767 | -64.31568 | 23817 ft | 405 kts | 243° |
| 2026-04-26 18:33 | -8.80040 | -64.34132 | 24683 ft | 411 kts | 243° |
| 2026-04-26 18:33 | -8.81331 | -64.36736 | 25505 ft | 416 kts | 243° |
| 2026-04-26 18:33 | -8.82629 | -64.39362 | 26273 ft | 421 kts | 243° |
| 2026-04-26 18:33 | -8.83947 | -64.42027 | 27010 ft | 426 kts | 243° |
| 2026-04-26 18:34 | -8.85149 | -64.44453 | 27641 ft | 430 kts | 242° |
| 2026-04-26 18:34 | -8.86649 | -64.47404 | 28369 ft | 434 kts | 242° |
| 2026-04-26 18:34 | -8.88053 | -64.50100 | 29151 ft | 433 kts | 241° |
| 2026-04-26 18:34 | -8.89497 | -64.52759 | 30011 ft | 430 kts | 239° |
| 2026-04-26 18:35 | -8.90972 | -64.55327 | 30508 ft | 435 kts | 240° |
| 2026-04-26 18:35 | -8.92078 | -64.57899 | 30830 ft | 431 kts | 250° |
| 2026-04-26 18:35 | -8.93009 | -64.61037 | 30950 ft | 438 kts | 253° |
| 2026-04-26 18:35 | -8.93782 | -64.63897 | 30960 ft | 446 kts | 253° |
| 2026-04-26 18:36 | -8.95416 | -64.69943 | 30961 ft | 459 kts | 253° |
| 2026-04-26 18:36 | -8.96838 | -64.75198 | 30963 ft | 466 kts | 254° |
| 2026-04-26 18:37 | -8.98493 | -64.81325 | 30964 ft | 473 kts | 254° |
| 2026-04-26 18:37 | -9.00294 | -64.87675 | 30964 ft | 478 kts | 253° |
| 2026-04-26 18:38 | -9.02159 | -64.94199 | 30964 ft | 480 kts | 253° |
| 2026-04-26 18:38 | -9.04005 | -65.00686 | 30964 ft | 481 kts | 253° |
| 2026-04-26 18:39 | -9.05872 | -65.07072 | 30964 ft | 481 kts | 252° |
| 2026-04-26 18:39 | -9.07690 | -65.13373 | 30966 ft | 482 kts | 253° |
| 2026-04-26 18:40 | -9.09528 | -65.19577 | 30966 ft | 482 kts | 252° |
| 2026-04-26 18:40 | -9.11309 | -65.25765 | 30965 ft | 483 kts | 252° |
| 2026-04-26 18:41 | -9.13302 | -65.32560 | 30966 ft | 483 kts | 253° |
| 2026-04-26 18:41 | -9.15203 | -65.39054 | 30972 ft | 483 kts | 253° |
| 2026-04-26 18:42 | -9.17083 | -65.45567 | 30973 ft | 483 kts | 253° |
| 2026-04-26 18:42 | -9.18973 | -65.52059 | 30973 ft | 483 kts | 253° |
| 2026-04-26 18:43 | -9.20892 | -65.58577 | 30974 ft | 483 kts | 253° |
| 2026-04-26 18:43 | -9.22789 | -65.65055 | 30972 ft | 484 kts | 252° |
| 2026-04-26 18:44 | -9.24710 | -65.71642 | 30973 ft | 490 kts | 252° |
| 2026-04-26 18:44 | -9.26630 | -65.78247 | 30973 ft | 493 kts | 252° |
| 2026-04-26 18:45 | -9.28559 | -65.84905 | 30974 ft | 494 kts | 252° |
| 2026-04-26 18:45 | -9.30481 | -65.91568 | 30973 ft | 495 kts | 252° |
| 2026-04-26 18:46 | -9.32392 | -65.98211 | 30976 ft | 490 kts | 253° |
| 2026-04-26 18:46 | -9.34281 | -66.04806 | 30977 ft | 489 kts | 253° |
| 2026-04-26 18:47 | -9.36158 | -66.11385 | 30975 ft | 479 kts | 253° |
| 2026-04-26 18:47 | -9.36879 | -66.13918 | 30974 ft | 459 kts | 253° |
| 2026-04-26 18:47 | -9.37592 | -66.16421 | 30936 ft | 441 kts | 254° |
| 2026-04-26 18:48 | -9.38359 | -66.19132 | 30527 ft | 433 kts | 254° |
| 2026-04-26 18:48 | -9.39236 | -66.22227 | 30030 ft | 425 kts | 254° |
| 2026-04-26 18:48 | -9.40056 | -66.25072 | 29544 ft | 420 kts | 253° |
| 2026-04-26 18:48 | -9.40876 | -66.27876 | 29048 ft | 416 kts | 253° |
| 2026-04-26 18:49 | -9.41670 | -66.30682 | 28532 ft | 412 kts | 253° |
| 2026-04-26 18:49 | -9.42445 | -66.33345 | 28036 ft | 409 kts | 252° |
| 2026-04-26 18:49 | -9.43272 | -66.36182 | 27503 ft | 407 kts | 253° |
| 2026-04-26 18:49 | -9.44040 | -66.38911 | 26975 ft | 405 kts | 253° |
| 2026-04-26 18:50 | -9.44759 | -66.41388 | 26503 ft | 403 kts | 252° |
| 2026-04-26 18:50 | -9.45076 | -66.42457 | 26300 ft | 402 kts | 252° |
| 2026-04-26 18:50 | -9.45872 | -66.45222 | 25692 ft | 402 kts | 253° |
| 2026-04-26 18:50 | -9.46633 | -66.47925 | 24956 ft | 405 kts | 253° |
| 2026-04-26 18:51 | -9.47440 | -66.50685 | 24293 ft | 406 kts | 252° |
| 2026-04-26 18:51 | -9.48253 | -66.53393 | 23698 ft | 405 kts | 252° |
| 2026-04-26 18:51 | -9.49057 | -66.56137 | 23129 ft | 404 kts | 253° |
| 2026-04-26 18:51 | -9.49847 | -66.58863 | 22575 ft | 401 kts | 252° |
| 2026-04-26 18:52 | -9.50635 | -66.61570 | 22043 ft | 399 kts | 252° |
| 2026-04-26 18:52 | -9.51411 | -66.64242 | 21519 ft | 397 kts | 252° |
| 2026-04-26 18:52 | -9.52185 | -66.66914 | 21003 ft | 394 kts | 252° |
| 2026-04-26 18:52 | -9.52953 | -66.69571 | 20487 ft | 392 kts | 253° |
| 2026-04-26 18:53 | -9.53716 | -66.72216 | 19986 ft | 390 kts | 253° |
| 2026-04-26 18:53 | -9.54472 | -66.74838 | 19490 ft | 388 kts | 253° |
| 2026-04-26 18:53 | -9.55217 | -66.77425 | 19027 ft | 385 kts | 253° |
| 2026-04-26 18:53 | -9.55961 | -66.80021 | 18540 ft | 384 kts | 253° |
| 2026-04-26 18:54 | -9.56709 | -66.82626 | 18049 ft | 382 kts | 253° |
| 2026-04-26 18:54 | -9.57433 | -66.85156 | 17593 ft | 380 kts | 253° |
| 2026-04-26 18:54 | -9.58166 | -66.87723 | 17136 ft | 378 kts | 253° |
| 2026-04-26 18:54 | -9.58896 | -66.90277 | 16690 ft | 375 kts | 253° |
| 2026-04-26 18:55 | -9.59626 | -66.92837 | 16244 ft | 373 kts | 253° |
| 2026-04-26 18:55 | -9.60332 | -66.95320 | 15807 ft | 371 kts | 253° |
| 2026-04-26 18:55 | -9.61043 | -66.97821 | 15375 ft | 368 kts | 253° |
| 2026-04-26 18:55 | -9.61753 | -67.00322 | 14947 ft | 366 kts | 253° |
| 2026-04-26 18:56 | -9.62446 | -67.02772 | 14521 ft | 364 kts | 253° |
| 2026-04-26 18:56 | -9.63141 | -67.05226 | 14102 ft | 362 kts | 253° |
| 2026-04-26 18:56 | -9.63825 | -67.07648 | 13700 ft | 359 kts | 253° |
| 2026-04-26 18:56 | -9.64511 | -67.10081 | 13293 ft | 357 kts | 253° |
| 2026-04-26 18:57 | -9.65146 | -67.12322 | 13105 ft | 348 kts | 253° |
| 2026-04-26 18:57 | -9.65613 | -67.13959 | 13054 ft | 340 kts | 253° |
| 2026-04-26 18:57 | -9.66472 | -67.16968 | 13002 ft | 327 kts | 253° |
| 2026-04-26 18:57 | -9.67115 | -67.19158 | 13004 ft | 326 kts | 253° |
| 2026-04-26 18:58 | -9.67720 | -67.21388 | 13003 ft | 329 kts | 257° |
| 2026-04-26 18:58 | -9.68164 | -67.23640 | 13003 ft | 328 kts | 259° |
| 2026-04-26 18:58 | -9.68555 | -67.25914 | 13003 ft | 328 kts | 260° |
| 2026-04-26 18:58 | -9.68938 | -67.28170 | 12772 ft | 327 kts | 260° |
| 2026-04-26 18:59 | -9.69330 | -67.30475 | 11834 ft | 337 kts | 260° |
| 2026-04-26 18:59 | -9.69738 | -67.32761 | 11564 ft | 325 kts | 259° |
| 2026-04-26 18:59 | -9.70148 | -67.34959 | 11315 ft | 313 kts | 259° |
| 2026-04-26 18:59 | -9.70522 | -67.37100 | 10818 ft | 311 kts | 261° |
| 2026-04-26 19:00 | -9.70899 | -67.39253 | 10354 ft | 308 kts | 260° |
| 2026-04-26 19:00 | -9.71292 | -67.41375 | 9885 ft | 305 kts | 259° |
| 2026-04-26 19:00 | -9.71677 | -67.43497 | 9426 ft | 302 kts | 261° |
| 2026-04-26 19:00 | -9.72039 | -67.45598 | 8968 ft | 299 kts | 260° |
| 2026-04-26 19:01 | -9.72413 | -67.47620 | 8519 ft | 297 kts | 260° |
| 2026-04-26 19:01 | -9.72654 | -67.48912 | 8246 ft | 295 kts | 260° |
| 2026-04-26 19:01 | -9.73016 | -67.51004 | 7797 ft | 292 kts | 261° |
| 2026-04-26 19:01 | -9.73339 | -67.52771 | 7410 ft | 290 kts | 260° |
| 2026-04-26 19:02 | -9.73651 | -67.54450 | 7043 ft | 287 kts | 260° |
| 2026-04-26 19:02 | -9.74048 | -67.56595 | 6571 ft | 285 kts | 260° |
| 2026-04-26 19:02 | -9.74404 | -67.58526 | 6226 ft | 280 kts | 260° |
| 2026-04-26 19:02 | -9.74642 | -67.59826 | 5741 ft | 285 kts | 260° |
| 2026-04-26 19:03 | -9.75131 | -67.62491 | 4749 ft | 296 kts | 261° |
| 2026-04-26 19:03 | -9.75513 | -67.64576 | 3993 ft | 301 kts | 261° |
| 2026-04-26 19:03 | -9.75893 | -67.66671 | 3242 ft | 304 kts | 261° |
| 2026-04-26 19:03 | -9.76270 | -67.68759 | 2696 ft | 300 kts | 261° |
| 2026-04-26 19:04 | -9.76639 | -67.70802 | 2337 ft | 290 kts | 261° |
| 2026-04-26 19:04 | -9.76994 | -67.72744 | 2246 ft | 273 kts | 260° |
| 2026-04-26 19:04 | -9.77486 | -67.74480 | 2187 ft | 236 kts | 250° |
| 2026-04-26 19:04 | -9.78162 | -67.75822 | 2212 ft | 197 kts | 240° |
| 2026-04-26 19:05 | -9.79395 | -67.77741 | 2202 ft | 137 kts | 238° |
| 2026-04-26 19:05 | -9.79919 | -67.78546 | 2200 ft | 133 kts | 238° |
| 2026-04-26 19:05 | -9.80424 | -67.79321 | 2199 ft | 133 kts | 238° |
| 2026-04-26 19:06 | -9.80931 | -67.80101 | 2202 ft | 133 kts | 238° |
| 2026-04-26 19:06 | -9.81435 | -67.80876 | 2201 ft | 133 kts | 238° |
| 2026-04-26 19:06 | -9.81948 | -67.81663 | 2186 ft | 134 kts | 238° |
| 2026-04-26 19:06 | -9.82453 | -67.82441 | 2027 ft | 133 kts | 239° |
| 2026-04-26 19:07 | -9.82956 | -67.83223 | 1856 ft | 131 kts | 239° |
| 2026-04-26 19:07 | -9.83455 | -67.83997 | 1683 ft | 131 kts | 238° |
| 2026-04-26 19:07 | -9.83952 | -67.84768 | 1508 ft | 130 kts | 238° |
| 2026-04-26 19:07 | -9.84442 | -67.85533 | 1331 ft | 131 kts | 239° |
| 2026-04-26 19:08 | -9.84929 | -67.86307 | 1158 ft | 131 kts | 238° |
| 2026-04-26 19:08 | -9.85424 | -67.87075 | 982 ft | 130 kts | 238° |
| 2026-04-26 19:08 | -9.85919 | -67.87853 | 805 ft | 130 kts | 238° |
| 2026-04-26 19:08 | -9.86399 | -67.88614 | 689 ft | 129 kts | 238° |
| 2026-04-26 19:09 | -9.86869 | -67.89349 | 642 ft | 116 kts | 238° |
| 2026-04-26 19:09 | -9.87186 | -67.89839 | 641 ft | 45 kts | 236° |
| 2026-04-26 19:09 | -9.87265 | -67.89960 | 641 ft | 24 kts | 236° |
| 2026-04-26 19:09 | -9.87353 | -67.90096 | 641 ft | 13 kts | 237° |
| 2026-04-26 19:10 | -9.87382 | -67.90140 | 641 ft | 5 kts | 237° |
| 2026-04-26 19:10 | -9.87394 | -67.90160 | 641 ft | 2 kts | 237° |
| 2026-04-26 19:10 | -9.87401 | -67.90171 | 641 ft | 4 kts | 237° |
| 2026-04-26 19:10 | -9.87421 | -67.90199 | 641 ft | 4 kts | 220° |
| 2026-04-26 19:11 | -9.87443 | -67.90197 | 641 ft | 2 kts | 141° |
| 2026-04-26 19:11 | -9.87446 | -67.90176 | 641 ft | 5 kts | 66° |
| 2026-04-26 19:11 | -9.87412 | -67.90159 | 641 ft | 8 kts | 24° |
| 2026-04-26 19:11 | -9.87371 | -67.90109 | 641 ft | 12 kts | 57° |
| 2026-04-26 19:12 | -9.87317 | -67.90022 | 641 ft | 17 kts | 57° |
| 2026-04-26 19:12 | -9.87247 | -67.89912 | 641 ft | 18 kts | 56° |
| 2026-04-26 19:12 | -9.87179 | -67.89808 | 641 ft | 20 kts | 56° |
| 2026-04-26 19:12 | -9.87108 | -67.89701 | 641 ft | 15 kts | 56° |
| 2026-04-26 19:13 | -9.87053 | -67.89634 | 641 ft | 11 kts | 17° |
| 2026-04-26 19:13 | -9.87006 | -67.89636 | 641 ft | 8 kts | 350° |
| 2026-04-26 19:13 | -9.86922 | -67.89650 | 641 ft | 6 kts | 350° |
| 2026-04-26 19:13 | -9.86871 | -67.89659 | 641 ft | 5 kts | 353° |
| 2026-04-26 19:14 | -9.86829 | -67.89638 | 641 ft | 9 kts | 57° |
| 2026-04-26 19:14 | -9.86786 | -67.89571 | 641 ft | 14 kts | 57° |
| 2026-04-26 19:14 | -9.86743 | -67.89566 | 641 ft | 8 kts | 324° |
| 2026-04-26 19:14 | -9.86727 | -67.89579 | 641 ft | 8 kts | 324° |
| 2026-04-26 19:15 | -9.86705 | -67.89594 | 641 ft | 0 kts | 324° |